sensor_id;sensor_type;location;lat;lon;timestamp;P1;durP1;ratioP1;P2;durP2;ratioP2
34900;SDS011;21112;51.976;5.660;2023-07-09T00:02:11;10.98;;;5.15;;
34900;SDS011;21112;51.976;5.660;2023-07-09T00:04:38;10.70;;;5.00;;
34900;SDS011;21112;51.976;5.660;2023-07-09T00:07:05;12.25;;;5.53;;
34900;SDS011;21112;51.976;5.660;2023-07-09T00:09:36;12.43;;;4.97;;
34900;SDS011;21112;51.976;5.660;2023-07-09T00:12:03;13.65;;;5.65;;
34900;SDS011;21112;51.976;5.660;2023-07-09T00:14:31;12.60;;;4.82;;
34900;SDS011;21112;51.976;5.660;2023-07-09T00:16:57;9.68;;;4.93;;
34900;SDS011;21112;51.976;5.660;2023-07-09T00:19:27;10.63;;;5.20;;
34900;SDS011;21112;51.976;5.660;2023-07-09T00:22:00;11.95;;;5.05;;
34900;SDS011;21112;51.976;5.660;2023-07-09T00:24:27;12.63;;;5.22;;
34900;SDS011;21112;51.976;5.660;2023-07-09T00:26:58;13.82;;;5.80;;
34900;SDS011;21112;51.976;5.660;2023-07-09T00:29:26;9.65;;;4.80;;
34900;SDS011;21112;51.976;5.660;2023-07-09T00:31:52;11.80;;;5.55;;
34900;SDS011;21112;51.976;5.660;2023-07-09T00:34:19;11.38;;;4.78;;
34900;SDS011;21112;51.976;5.660;2023-07-09T00:36:46;14.15;;;5.22;;
34900;SDS011;21112;51.976;5.660;2023-07-09T00:39:16;23.42;;;12.23;;
34900;SDS011;21112;51.976;5.660;2023-07-09T00:41:43;20.13;;;10.50;;
34900;SDS011;21112;51.976;5.660;2023-07-09T00:44:20;22.85;;;7.95;;
34900;SDS011;21112;51.976;5.660;2023-07-09T00:49:44;18.05;;;8.70;;
34900;SDS011;21112;51.976;5.660;2023-07-09T00:52:17;14.70;;;5.80;;
34900;SDS011;21112;51.976;5.660;2023-07-09T00:54:49;12.25;;;5.35;;
34900;SDS011;21112;51.976;5.660;2023-07-09T00:57:18;16.27;;;5.18;;
34900;SDS011;21112;51.976;5.660;2023-07-09T00:59:49;13.95;;;5.13;;
34900;SDS011;21112;51.976;5.660;2023-07-09T01:02:17;10.80;;;5.22;;
34900;SDS011;21112;51.976;5.660;2023-07-09T01:04:48;11.38;;;5.45;;
34900;SDS011;21112;51.976;5.660;2023-07-09T01:07:15;13.38;;;5.10;;
34900;SDS011;21112;51.976;5.660;2023-07-09T01:09:44;15.48;;;5.13;;
34900;SDS011;21112;51.976;5.660;2023-07-09T01:12:12;10.23;;;5.32;;
34900;SDS011;21112;51.976;5.660;2023-07-09T01:14:41;11.07;;;5.53;;
34900;SDS011;21112;51.976;5.660;2023-07-09T01:17:10;10.97;;;5.10;;
34900;SDS011;21112;51.976;5.660;2023-07-09T01:19:38;12.18;;;5.70;;
34900;SDS011;21112;51.976;5.660;2023-07-09T01:22:11;12.23;;;5.28;;
34900;SDS011;21112;51.976;5.660;2023-07-09T01:24:48;11.32;;;4.95;;
34900;SDS011;21112;51.976;5.660;2023-07-09T01:27:18;11.57;;;5.15;;
34900;SDS011;21112;51.976;5.660;2023-07-09T01:29:46;11.95;;;5.88;;
34900;SDS011;21112;51.976;5.660;2023-07-09T01:32:14;12.65;;;5.47;;
34900;SDS011;21112;51.976;5.660;2023-07-09T01:34:42;11.60;;;5.45;;
34900;SDS011;21112;51.976;5.660;2023-07-09T01:37:10;20.98;;;12.20;;
34900;SDS011;21112;51.976;5.660;2023-07-09T01:39:37;25.27;;;11.38;;
34900;SDS011;21112;51.976;5.660;2023-07-09T01:42:06;77.10;;;44.58;;
34900;SDS011;21112;51.976;5.660;2023-07-09T01:44:33;41.47;;;22.15;;
34900;SDS011;21112;51.976;5.660;2023-07-09T01:47:00;19.73;;;9.93;;
34900;SDS011;21112;51.976;5.660;2023-07-09T01:51:57;14.30;;;5.60;;
34900;SDS011;21112;51.976;5.660;2023-07-09T01:54:27;12.73;;;5.80;;
34900;SDS011;21112;51.976;5.660;2023-07-09T01:57:00;11.75;;;5.85;;
34900;SDS011;21112;51.976;5.660;2023-07-09T01:59:39;13.18;;;6.22;;
34900;SDS011;21112;51.976;5.660;2023-07-09T02:02:06;13.18;;;5.80;;
34900;SDS011;21112;51.976;5.660;2023-07-09T02:04:33;10.20;;;5.35;;
34900;SDS011;21112;51.976;5.660;2023-07-09T02:07:00;14.00;;;5.57;;
34900;SDS011;21112;51.976;5.660;2023-07-09T02:09:28;12.07;;;5.50;;
34900;SDS011;21112;51.976;5.660;2023-07-09T02:11:54;10.30;;;5.03;;
34900;SDS011;21112;51.976;5.660;2023-07-09T02:14:21;10.13;;;5.72;;
34900;SDS011;21112;51.976;5.660;2023-07-09T02:16:48;12.30;;;5.75;;
34900;SDS011;21112;51.976;5.660;2023-07-09T02:19:15;12.65;;;5.82;;
34900;SDS011;21112;51.976;5.660;2023-07-09T02:21:42;16.88;;;6.25;;
34900;SDS011;21112;51.976;5.660;2023-07-09T02:24:08;12.48;;;5.55;;
34900;SDS011;21112;51.976;5.660;2023-07-09T02:26:36;12.20;;;5.85;;
34900;SDS011;21112;51.976;5.660;2023-07-09T02:29:03;15.52;;;5.85;;
34900;SDS011;21112;51.976;5.660;2023-07-09T02:31:30;15.45;;;5.20;;
34900;SDS011;21112;51.976;5.660;2023-07-09T02:33:58;13.57;;;5.80;;
34900;SDS011;21112;51.976;5.660;2023-07-09T02:36:25;12.80;;;5.60;;
34900;SDS011;21112;51.976;5.660;2023-07-09T02:38:52;11.70;;;5.40;;
34900;SDS011;21112;51.976;5.660;2023-07-09T02:41:19;11.82;;;5.43;;
34900;SDS011;21112;51.976;5.660;2023-07-09T02:43:47;10.23;;;5.38;;
34900;SDS011;21112;51.976;5.660;2023-07-09T02:46:13;10.40;;;5.35;;
34900;SDS011;21112;51.976;5.660;2023-07-09T02:48:40;12.45;;;6.47;;
34900;SDS011;21112;51.976;5.660;2023-07-09T02:51:06;13.60;;;5.47;;
34900;SDS011;21112;51.976;5.660;2023-07-09T02:53:33;11.48;;;5.90;;
34900;SDS011;21112;51.976;5.660;2023-07-09T02:56:00;12.40;;;5.70;;
34900;SDS011;21112;51.976;5.660;2023-07-09T02:58:27;11.48;;;5.65;;
34900;SDS011;21112;51.976;5.660;2023-07-09T03:00:55;12.95;;;5.78;;
34900;SDS011;21112;51.976;5.660;2023-07-09T03:03:21;11.00;;;5.32;;
34900;SDS011;21112;51.976;5.660;2023-07-09T03:05:48;17.00;;;6.40;;
34900;SDS011;21112;51.976;5.660;2023-07-09T03:08:15;13.77;;;6.15;;
34900;SDS011;21112;51.976;5.660;2023-07-09T03:10:42;13.32;;;6.03;;
34900;SDS011;21112;51.976;5.660;2023-07-09T03:13:08;15.57;;;5.70;;
34900;SDS011;21112;51.976;5.660;2023-07-09T03:15:35;11.00;;;5.60;;
34900;SDS011;21112;51.976;5.660;2023-07-09T03:18:03;14.52;;;6.22;;
34900;SDS011;21112;51.976;5.660;2023-07-09T03:20:31;13.38;;;5.88;;
34900;SDS011;21112;51.976;5.660;2023-07-09T03:22:58;13.10;;;5.57;;
34900;SDS011;21112;51.976;5.660;2023-07-09T03:25:25;10.82;;;5.60;;
34900;SDS011;21112;51.976;5.660;2023-07-09T03:27:51;13.63;;;6.00;;
34900;SDS011;21112;51.976;5.660;2023-07-09T03:30:18;14.15;;;5.97;;
34900;SDS011;21112;51.976;5.660;2023-07-09T03:32:45;12.07;;;5.65;;
34900;SDS011;21112;51.976;5.660;2023-07-09T03:35:13;12.30;;;5.40;;
34900;SDS011;21112;51.976;5.660;2023-07-09T03:37:40;14.45;;;5.80;;
34900;SDS011;21112;51.976;5.660;2023-07-09T03:40:09;13.27;;;5.95;;
34900;SDS011;21112;51.976;5.660;2023-07-09T03:42:36;11.77;;;5.63;;
34900;SDS011;21112;51.976;5.660;2023-07-09T03:45:03;10.63;;;6.00;;
34900;SDS011;21112;51.976;5.660;2023-07-09T03:47:30;15.67;;;5.77;;
34900;SDS011;21112;51.976;5.660;2023-07-09T03:49:57;11.40;;;5.57;;
34900;SDS011;21112;51.976;5.660;2023-07-09T03:52:25;13.88;;;5.53;;
34900;SDS011;21112;51.976;5.660;2023-07-09T03:54:51;11.55;;;5.15;;
34900;SDS011;21112;51.976;5.660;2023-07-09T03:57:18;13.32;;;5.93;;
34900;SDS011;21112;51.976;5.660;2023-07-09T03:59:45;11.93;;;6.03;;
34900;SDS011;21112;51.976;5.660;2023-07-09T04:02:12;14.63;;;5.88;;
34900;SDS011;21112;51.976;5.660;2023-07-09T04:04:39;11.50;;;5.38;;
34900;SDS011;21112;51.976;5.660;2023-07-09T04:07:05;15.20;;;5.78;;
34900;SDS011;21112;51.976;5.660;2023-07-09T04:09:34;12.35;;;5.55;;
34900;SDS011;21112;51.976;5.660;2023-07-09T04:12:00;14.70;;;5.88;;
34900;SDS011;21112;51.976;5.660;2023-07-09T04:14:28;12.80;;;5.73;;
34900;SDS011;21112;51.976;5.660;2023-07-09T04:16:54;15.15;;;6.40;;
34900;SDS011;21112;51.976;5.660;2023-07-09T04:19:22;12.75;;;5.70;;
34900;SDS011;21112;51.976;5.660;2023-07-09T04:21:49;16.48;;;6.80;;
34900;SDS011;21112;51.976;5.660;2023-07-09T04:24:16;13.10;;;5.78;;
34900;SDS011;21112;51.976;5.660;2023-07-09T04:26:45;13.18;;;6.30;;
34900;SDS011;21112;51.976;5.660;2023-07-09T04:31:39;12.23;;;5.50;;
34900;SDS011;21112;51.976;5.660;2023-07-09T04:34:06;11.43;;;6.10;;
34900;SDS011;21112;51.976;5.660;2023-07-09T04:36:33;16.35;;;5.82;;
34900;SDS011;21112;51.976;5.660;2023-07-09T04:39:00;13.50;;;5.95;;
34900;SDS011;21112;51.976;5.660;2023-07-09T04:41:28;12.45;;;5.88;;
34900;SDS011;21112;51.976;5.660;2023-07-09T04:43:56;15.98;;;5.85;;
34900;SDS011;21112;51.976;5.660;2023-07-09T04:46:23;15.70;;;6.30;;
34900;SDS011;21112;51.976;5.660;2023-07-09T04:48:49;12.40;;;5.90;;
34900;SDS011;21112;51.976;5.660;2023-07-09T04:51:18;12.93;;;5.78;;
34900;SDS011;21112;51.976;5.660;2023-07-09T04:53:44;12.85;;;5.45;;
34900;SDS011;21112;51.976;5.660;2023-07-09T04:56:11;15.20;;;6.22;;
34900;SDS011;21112;51.976;5.660;2023-07-09T04:58:38;11.50;;;5.60;;
34900;SDS011;21112;51.976;5.660;2023-07-09T05:01:06;12.05;;;5.97;;
34900;SDS011;21112;51.976;5.660;2023-07-09T05:03:33;13.88;;;6.43;;
34900;SDS011;21112;51.976;5.660;2023-07-09T05:06:03;13.57;;;6.20;;
34900;SDS011;21112;51.976;5.660;2023-07-09T05:08:30;13.45;;;6.72;;
34900;SDS011;21112;51.976;5.660;2023-07-09T05:10:57;13.60;;;6.65;;
34900;SDS011;21112;51.976;5.660;2023-07-09T05:13:24;12.07;;;5.70;;
34900;SDS011;21112;51.976;5.660;2023-07-09T05:15:52;13.63;;;5.93;;
34900;SDS011;21112;51.976;5.660;2023-07-09T05:18:20;12.18;;;6.13;;
34900;SDS011;21112;51.976;5.660;2023-07-09T05:23:14;17.08;;;7.05;;
34900;SDS011;21112;51.976;5.660;2023-07-09T05:25:40;16.38;;;7.03;;
34900;SDS011;21112;51.976;5.660;2023-07-09T05:28:07;15.65;;;7.05;;
34900;SDS011;21112;51.976;5.660;2023-07-09T05:30:34;17.92;;;8.65;;
34900;SDS011;21112;51.976;5.660;2023-07-09T05:33:00;19.02;;;9.77;;
34900;SDS011;21112;51.976;5.660;2023-07-09T05:35:28;23.02;;;10.75;;
34900;SDS011;21112;51.976;5.660;2023-07-09T05:37:55;24.08;;;11.02;;
34900;SDS011;21112;51.976;5.660;2023-07-09T05:40:24;19.80;;;10.07;;
34900;SDS011;21112;51.976;5.660;2023-07-09T05:42:51;22.42;;;11.23;;
34900;SDS011;21112;51.976;5.660;2023-07-09T05:45:17;25.33;;;11.18;;
34900;SDS011;21112;51.976;5.660;2023-07-09T05:47:44;22.85;;;11.50;;
34900;SDS011;21112;51.976;5.660;2023-07-09T05:50:11;24.77;;;11.00;;
34900;SDS011;21112;51.976;5.660;2023-07-09T05:52:39;24.02;;;11.23;;
34900;SDS011;21112;51.976;5.660;2023-07-09T05:55:06;30.95;;;12.68;;
34900;SDS011;21112;51.976;5.660;2023-07-09T05:57:33;31.00;;;14.90;;
34900;SDS011;21112;51.976;5.660;2023-07-09T06:00:00;25.35;;;13.02;;
34900;SDS011;21112;51.976;5.660;2023-07-09T06:02:26;44.47;;;24.65;;
34900;SDS011;21112;51.976;5.660;2023-07-09T06:04:53;30.50;;;16.25;;
34900;SDS011;21112;51.976;5.660;2023-07-09T06:07:23;19.80;;;10.45;;
34900;SDS011;21112;51.976;5.660;2023-07-09T06:09:51;20.58;;;10.00;;
34900;SDS011;21112;51.976;5.660;2023-07-09T06:14:45;21.08;;;9.27;;
34900;SDS011;21112;51.976;5.660;2023-07-09T06:17:11;29.45;;;10.80;;
34900;SDS011;21112;51.976;5.660;2023-07-09T06:19:39;19.42;;;9.52;;
34900;SDS011;21112;51.976;5.660;2023-07-09T06:22:06;22.67;;;10.43;;
34900;SDS011;21112;51.976;5.660;2023-07-09T06:24:32;19.63;;;9.10;;
34900;SDS011;21112;51.976;5.660;2023-07-09T06:27:01;19.77;;;9.48;;
34900;SDS011;21112;51.976;5.660;2023-07-09T06:31:54;18.27;;;9.15;;
34900;SDS011;21112;51.976;5.660;2023-07-09T06:34:21;26.20;;;9.43;;
34900;SDS011;21112;51.976;5.660;2023-07-09T06:36:48;19.45;;;9.00;;
34900;SDS011;21112;51.976;5.660;2023-07-09T06:39:14;21.45;;;9.07;;
34900;SDS011;21112;51.976;5.660;2023-07-09T06:41:41;18.55;;;9.23;;
34900;SDS011;21112;51.976;5.660;2023-07-09T06:44:09;27.70;;;11.73;;
34900;SDS011;21112;51.976;5.660;2023-07-09T06:46:36;25.38;;;10.80;;
34900;SDS011;21112;51.976;5.660;2023-07-09T06:49:03;26.23;;;10.50;;
34900;SDS011;21112;51.976;5.660;2023-07-09T06:51:30;17.13;;;8.40;;
34900;SDS011;21112;51.976;5.660;2023-07-09T06:53:57;15.13;;;8.27;;
34900;SDS011;21112;51.976;5.660;2023-07-09T06:56:24;19.08;;;8.77;;
34900;SDS011;21112;51.976;5.660;2023-07-09T06:58:54;20.15;;;9.02;;
34900;SDS011;21112;51.976;5.660;2023-07-09T07:01:22;16.05;;;8.85;;
34900;SDS011;21112;51.976;5.660;2023-07-09T07:03:49;17.13;;;8.43;;
34900;SDS011;21112;51.976;5.660;2023-07-09T07:06:16;16.98;;;8.77;;
34900;SDS011;21112;51.976;5.660;2023-07-09T07:08:42;17.40;;;8.68;;
34900;SDS011;21112;51.976;5.660;2023-07-09T07:11:09;18.70;;;9.10;;
34900;SDS011;21112;51.976;5.660;2023-07-09T07:13:37;20.33;;;9.27;;
34900;SDS011;21112;51.976;5.660;2023-07-09T07:16:05;19.33;;;8.38;;
34900;SDS011;21112;51.976;5.660;2023-07-09T07:18:34;18.98;;;8.68;;
34900;SDS011;21112;51.976;5.660;2023-07-09T07:21:01;20.08;;;9.35;;
34900;SDS011;21112;51.976;5.660;2023-07-09T07:23:28;16.58;;;7.93;;
34900;SDS011;21112;51.976;5.660;2023-07-09T07:25:56;18.00;;;8.30;;
34900;SDS011;21112;51.976;5.660;2023-07-09T07:28:22;17.80;;;7.30;;
34900;SDS011;21112;51.976;5.660;2023-07-09T07:30:57;17.52;;;6.90;;
34900;SDS011;21112;51.976;5.660;2023-07-09T07:33:24;21.15;;;8.00;;
34900;SDS011;21112;51.976;5.660;2023-07-09T07:35:52;14.07;;;7.28;;
34900;SDS011;21112;51.976;5.660;2023-07-09T07:38:19;14.18;;;7.18;;
34900;SDS011;21112;51.976;5.660;2023-07-09T07:40:46;13.90;;;7.00;;
34900;SDS011;21112;51.976;5.660;2023-07-09T07:43:13;15.38;;;7.22;;
34900;SDS011;21112;51.976;5.660;2023-07-09T07:45:40;16.38;;;7.75;;
34900;SDS011;21112;51.976;5.660;2023-07-09T07:48:06;16.05;;;6.85;;
34900;SDS011;21112;51.976;5.660;2023-07-09T07:50:33;15.35;;;7.28;;
34900;SDS011;21112;51.976;5.660;2023-07-09T07:53:02;13.60;;;7.17;;
34900;SDS011;21112;51.976;5.660;2023-07-09T07:55:29;18.73;;;7.25;;
34900;SDS011;21112;51.976;5.660;2023-07-09T07:57:56;18.30;;;7.05;;
34900;SDS011;21112;51.976;5.660;2023-07-09T08:00:23;19.45;;;8.52;;
34900;SDS011;21112;51.976;5.660;2023-07-09T08:02:49;17.98;;;7.50;;
34900;SDS011;21112;51.976;5.660;2023-07-09T08:05:16;18.58;;;7.28;;
34900;SDS011;21112;51.976;5.660;2023-07-09T08:07:43;22.98;;;6.85;;
34900;SDS011;21112;51.976;5.660;2023-07-09T08:10:12;16.27;;;7.82;;
34900;SDS011;21112;51.976;5.660;2023-07-09T08:12:40;16.85;;;8.25;;
34900;SDS011;21112;51.976;5.660;2023-07-09T08:15:07;19.42;;;9.57;;
34900;SDS011;21112;51.976;5.660;2023-07-09T08:17:35;23.65;;;10.02;;
34900;SDS011;21112;51.976;5.660;2023-07-09T08:20:05;12.32;;;6.80;;
34900;SDS011;21112;51.976;5.660;2023-07-09T08:22:35;18.80;;;6.90;;
34900;SDS011;21112;51.976;5.660;2023-07-09T08:25:01;14.18;;;7.35;;
34900;SDS011;21112;51.976;5.660;2023-07-09T08:27:32;16.13;;;6.28;;
34900;SDS011;21112;51.976;5.660;2023-07-09T08:29:59;14.65;;;6.95;;
34900;SDS011;21112;51.976;5.660;2023-07-09T08:32:28;14.27;;;6.38;;
34900;SDS011;21112;51.976;5.660;2023-07-09T08:34:57;19.05;;;7.43;;
34900;SDS011;21112;51.976;5.660;2023-07-09T08:37:24;18.23;;;8.75;;
34900;SDS011;21112;51.976;5.660;2023-07-09T08:39:51;41.90;;;24.77;;
34900;SDS011;21112;51.976;5.660;2023-07-09T08:42:20;18.23;;;7.80;;
34900;SDS011;21112;51.976;5.660;2023-07-09T08:47:43;15.82;;;6.88;;
34900;SDS011;21112;51.976;5.660;2023-07-09T08:50:16;15.25;;;6.35;;
34900;SDS011;21112;51.976;5.660;2023-07-09T08:52:48;20.15;;;10.18;;
34900;SDS011;21112;51.976;5.660;2023-07-09T08:55:17;19.85;;;7.28;;
34900;SDS011;21112;51.976;5.660;2023-07-09T08:57:46;14.70;;;6.88;;
34900;SDS011;21112;51.976;5.660;2023-07-09T09:00:18;16.40;;;6.28;;
34900;SDS011;21112;51.976;5.660;2023-07-09T09:02:56;14.65;;;6.53;;
34900;SDS011;21112;51.976;5.660;2023-07-09T09:05:25;12.52;;;6.43;;
34900;SDS011;21112;51.976;5.660;2023-07-09T09:07:55;15.05;;;6.18;;
34900;SDS011;21112;51.976;5.660;2023-07-09T09:10:26;12.43;;;6.43;;
34900;SDS011;21112;51.976;5.660;2023-07-09T09:12:59;16.35;;;6.43;;
34900;SDS011;21112;51.976;5.660;2023-07-09T09:15:33;17.77;;;8.98;;
34900;SDS011;21112;51.976;5.660;2023-07-09T09:18:10;18.25;;;6.53;;
34900;SDS011;21112;51.976;5.660;2023-07-09T09:20:46;13.88;;;5.68;;
34900;SDS011;21112;51.976;5.660;2023-07-09T09:23:20;14.88;;;6.20;;
34900;SDS011;21112;51.976;5.660;2023-07-09T09:25:52;23.95;;;6.78;;
34900;SDS011;21112;51.976;5.660;2023-07-09T09:28:34;14.82;;;6.05;;
34900;SDS011;21112;51.976;5.660;2023-07-09T09:31:20;18.65;;;5.65;;
34900;SDS011;21112;51.976;5.660;2023-07-09T09:33:51;19.33;;;5.78;;
34900;SDS011;21112;51.976;5.660;2023-07-09T09:36:25;13.23;;;6.50;;
34900;SDS011;21112;51.976;5.660;2023-07-09T09:38:55;16.48;;;5.65;;
34900;SDS011;21112;51.976;5.660;2023-07-09T09:41:30;11.88;;;4.90;;
34900;SDS011;21112;51.976;5.660;2023-07-09T09:44:15;9.30;;;5.07;;
34900;SDS011;21112;51.976;5.660;2023-07-09T09:47:01;10.82;;;5.10;;
34900;SDS011;21112;51.976;5.660;2023-07-09T09:49:29;15.07;;;5.32;;
34900;SDS011;21112;51.976;5.660;2023-07-09T09:52:01;13.48;;;5.30;;
34900;SDS011;21112;51.976;5.660;2023-07-09T09:54:46;10.35;;;4.88;;
34900;SDS011;21112;51.976;5.660;2023-07-09T09:57:31;10.20;;;4.78;;
34900;SDS011;21112;51.976;5.660;2023-07-09T09:59:57;15.20;;;7.85;;
34900;SDS011;21112;51.976;5.660;2023-07-09T10:02:26;15.07;;;4.80;;
34900;SDS011;21112;51.976;5.660;2023-07-09T10:04:53;18.23;;;10.93;;
34900;SDS011;21112;51.976;5.660;2023-07-09T10:08:52;16.70;;;8.88;;
34900;SDS011;21112;51.976;5.660;2023-07-09T10:11:24;13.18;;;5.63;;
34900;SDS011;21112;51.976;5.660;2023-07-09T10:13:58;9.73;;;5.22;;
34900;SDS011;21112;51.976;5.660;2023-07-09T10:16:32;13.10;;;5.18;;
34900;SDS011;21112;51.976;5.660;2023-07-09T10:19:04;10.00;;;4.97;;
34900;SDS011;21112;51.976;5.660;2023-07-09T10:21:40;10.00;;;4.70;;
34900;SDS011;21112;51.976;5.660;2023-07-09T10:24:20;14.88;;;4.32;;
34900;SDS011;21112;51.976;5.660;2023-07-09T10:27:00;11.75;;;3.88;;
34900;SDS011;21112;51.976;5.660;2023-07-09T10:29:34;10.93;;;3.70;;
34900;SDS011;21112;51.976;5.660;2023-07-09T10:32:10;11.40;;;4.28;;
34900;SDS011;21112;51.976;5.660;2023-07-09T10:34:44;10.93;;;4.35;;
34900;SDS011;21112;51.976;5.660;2023-07-09T10:37:23;9.20;;;4.38;;
34900;SDS011;21112;51.976;5.660;2023-07-09T10:40:12;10.02;;;4.20;;
34900;SDS011;21112;51.976;5.660;2023-07-09T10:42:43;11.30;;;4.10;;
34900;SDS011;21112;51.976;5.660;2023-07-09T10:45:15;7.90;;;4.03;;
34900;SDS011;21112;51.976;5.660;2023-07-09T10:47:44;9.93;;;4.28;;
34900;SDS011;21112;51.976;5.660;2023-07-09T10:50:15;13.15;;;4.43;;
34900;SDS011;21112;51.976;5.660;2023-07-09T10:52:46;10.52;;;4.03;;
34900;SDS011;21112;51.976;5.660;2023-07-09T10:55:17;14.60;;;6.55;;
34900;SDS011;21112;51.976;5.660;2023-07-09T10:57:48;15.82;;;9.13;;
34900;SDS011;21112;51.976;5.660;2023-07-09T11:00:19;20.35;;;9.60;;
34900;SDS011;21112;51.976;5.660;2023-07-09T11:02:50;14.35;;;5.10;;
34900;SDS011;21112;51.976;5.660;2023-07-09T11:05:23;8.40;;;3.67;;
34900;SDS011;21112;51.976;5.660;2023-07-09T11:07:55;8.90;;;3.40;;
34900;SDS011;21112;51.976;5.660;2023-07-09T11:10:27;7.45;;;3.30;;
34900;SDS011;21112;51.976;5.660;2023-07-09T11:12:57;10.05;;;3.88;;
34900;SDS011;21112;51.976;5.660;2023-07-09T11:15:27;8.65;;;3.25;;
34900;SDS011;21112;51.976;5.660;2023-07-09T11:17:59;10.55;;;4.63;;
34900;SDS011;21112;51.976;5.660;2023-07-09T11:20:31;10.57;;;4.82;;
34900;SDS011;21112;51.976;5.660;2023-07-09T11:23:01;7.47;;;3.88;;
34900;SDS011;21112;51.976;5.660;2023-07-09T11:25:31;9.18;;;3.50;;
34900;SDS011;21112;51.976;5.660;2023-07-09T11:28:07;10.75;;;3.38;;
34900;SDS011;21112;51.976;5.660;2023-07-09T11:33:15;7.97;;;3.17;;
34900;SDS011;21112;51.976;5.660;2023-07-09T11:35:45;8.73;;;4.00;;
34900;SDS011;21112;51.976;5.660;2023-07-09T11:38:15;6.57;;;3.55;;
34900;SDS011;21112;51.976;5.660;2023-07-09T11:40:50;10.05;;;3.90;;
34900;SDS011;21112;51.976;5.660;2023-07-09T11:43:25;18.05;;;3.58;;
34900;SDS011;21112;51.976;5.660;2023-07-09T11:45:54;7.55;;;3.80;;
34900;SDS011;21112;51.976;5.660;2023-07-09T11:48:23;9.85;;;3.80;;
34900;SDS011;21112;51.976;5.660;2023-07-09T11:50:52;13.02;;;4.30;;
34900;SDS011;21112;51.976;5.660;2023-07-09T11:53:22;8.60;;;3.65;;
34900;SDS011;21112;51.976;5.660;2023-07-09T11:55:56;7.40;;;3.72;;
34900;SDS011;21112;51.976;5.660;2023-07-09T11:58:23;9.05;;;3.67;;
34900;SDS011;21112;51.976;5.660;2023-07-09T12:00:50;9.40;;;3.90;;
34900;SDS011;21112;51.976;5.660;2023-07-09T12:03:20;5.53;;;3.08;;
34900;SDS011;21112;51.976;5.660;2023-07-09T12:05:49;12.25;;;3.78;;
34900;SDS011;21112;51.976;5.660;2023-07-09T12:08:17;11.23;;;3.95;;
34900;SDS011;21112;51.976;5.660;2023-07-09T12:10:44;9.15;;;3.72;;
34900;SDS011;21112;51.976;5.660;2023-07-09T12:13:13;8.75;;;3.75;;
34900;SDS011;21112;51.976;5.660;2023-07-09T12:15:40;10.27;;;3.70;;
34900;SDS011;21112;51.976;5.660;2023-07-09T12:18:10;9.15;;;3.33;;
34900;SDS011;21112;51.976;5.660;2023-07-09T12:20:38;12.02;;;4.50;;
34900;SDS011;21112;51.976;5.660;2023-07-09T12:23:10;14.80;;;5.82;;
34900;SDS011;21112;51.976;5.660;2023-07-09T12:25:37;8.85;;;3.63;;
34900;SDS011;21112;51.976;5.660;2023-07-09T12:28:14;8.82;;;3.80;;
34900;SDS011;21112;51.976;5.660;2023-07-09T12:30:44;11.70;;;3.55;;
34900;SDS011;21112;51.976;5.660;2023-07-09T12:33:12;14.70;;;4.68;;
34900;SDS011;21112;51.976;5.660;2023-07-09T12:35:42;11.90;;;4.13;;
34900;SDS011;21112;51.976;5.660;2023-07-09T12:38:15;9.32;;;4.13;;
34900;SDS011;21112;51.976;5.660;2023-07-09T12:40:43;10.43;;;4.13;;
34900;SDS011;21112;51.976;5.660;2023-07-09T12:43:10;9.33;;;3.90;;
34900;SDS011;21112;51.976;5.660;2023-07-09T12:45:39;10.52;;;4.13;;
34900;SDS011;21112;51.976;5.660;2023-07-09T12:48:07;8.93;;;4.18;;
34900;SDS011;21112;51.976;5.660;2023-07-09T12:50:38;16.25;;;4.40;;
34900;SDS011;21112;51.976;5.660;2023-07-09T12:53:11;16.05;;;6.20;;
34900;SDS011;21112;51.976;5.660;2023-07-09T12:55:41;20.90;;;10.82;;
34900;SDS011;21112;51.976;5.660;2023-07-09T12:58:08;10.98;;;5.75;;
34900;SDS011;21112;51.976;5.660;2023-07-09T13:00:38;11.02;;;5.60;;
34900;SDS011;21112;51.976;5.660;2023-07-09T13:03:10;11.50;;;5.82;;
34900;SDS011;21112;51.976;5.660;2023-07-09T13:05:39;13.35;;;4.68;;
34900;SDS011;21112;51.976;5.660;2023-07-09T13:08:18;10.35;;;3.80;;
34900;SDS011;21112;51.976;5.660;2023-07-09T13:10:46;13.43;;;4.03;;
34900;SDS011;21112;51.976;5.660;2023-07-09T13:13:17;9.70;;;4.65;;
34900;SDS011;21112;51.976;5.660;2023-07-09T13:15:50;14.68;;;4.40;;
34900;SDS011;21112;51.976;5.660;2023-07-09T13:18:22;10.80;;;4.43;;
34900;SDS011;21112;51.976;5.660;2023-07-09T13:20:49;9.40;;;4.20;;
34900;SDS011;21112;51.976;5.660;2023-07-09T13:23:17;8.33;;;3.90;;
34900;SDS011;21112;51.976;5.660;2023-07-09T13:25:45;9.98;;;4.47;;
34900;SDS011;21112;51.976;5.660;2023-07-09T13:28:16;11.55;;;4.38;;
34900;SDS011;21112;51.976;5.660;2023-07-09T13:30:44;13.07;;;4.45;;
34900;SDS011;21112;51.976;5.660;2023-07-09T13:33:13;11.93;;;5.28;;
34900;SDS011;21112;51.976;5.660;2023-07-09T13:35:40;11.07;;;5.45;;
34900;SDS011;21112;51.976;5.660;2023-07-09T13:38:11;12.77;;;5.43;;
34900;SDS011;21112;51.976;5.660;2023-07-09T13:40:40;13.30;;;4.88;;
34900;SDS011;21112;51.976;5.660;2023-07-09T13:43:08;14.63;;;4.88;;
34900;SDS011;21112;51.976;5.660;2023-07-09T13:45:38;9.30;;;3.97;;
34900;SDS011;21112;51.976;5.660;2023-07-09T13:48:09;11.85;;;5.68;;
34900;SDS011;21112;51.976;5.660;2023-07-09T13:50:41;12.35;;;5.97;;
34900;SDS011;21112;51.976;5.660;2023-07-09T13:53:11;10.20;;;4.38;;
34900;SDS011;21112;51.976;5.660;2023-07-09T13:55:44;8.55;;;4.07;;
34900;SDS011;21112;51.976;5.660;2023-07-09T13:58:16;11.60;;;3.85;;
34900;SDS011;21112;51.976;5.660;2023-07-09T14:00:44;8.20;;;3.50;;
34900;SDS011;21112;51.976;5.660;2023-07-09T14:03:17;8.45;;;3.05;;
34900;SDS011;21112;51.976;5.660;2023-07-09T14:05:47;6.30;;;3.13;;
34900;SDS011;21112;51.976;5.660;2023-07-09T14:08:16;8.88;;;4.05;;
34900;SDS011;21112;51.976;5.660;2023-07-09T14:10:44;7.93;;;3.90;;
34900;SDS011;21112;51.976;5.660;2023-07-09T14:13:11;8.50;;;4.38;;
34900;SDS011;21112;51.976;5.660;2023-07-09T14:15:40;10.15;;;4.90;;
34900;SDS011;21112;51.976;5.660;2023-07-09T14:18:09;7.77;;;4.60;;
34900;SDS011;21112;51.976;5.660;2023-07-09T14:20:39;11.32;;;4.63;;
34900;SDS011;21112;51.976;5.660;2023-07-09T14:23:08;8.88;;;4.63;;
34900;SDS011;21112;51.976;5.660;2023-07-09T14:25:35;9.05;;;4.78;;
34900;SDS011;21112;51.976;5.660;2023-07-09T14:28:04;11.55;;;4.75;;
34900;SDS011;21112;51.976;5.660;2023-07-09T14:30:33;11.63;;;4.95;;
34900;SDS011;21112;51.976;5.660;2023-07-09T14:33:01;8.60;;;4.00;;
34900;SDS011;21112;51.976;5.660;2023-07-09T14:35:32;11.57;;;4.20;;
34900;SDS011;21112;51.976;5.660;2023-07-09T14:38:03;10.30;;;4.82;;
34900;SDS011;21112;51.976;5.660;2023-07-09T14:40:32;12.60;;;3.97;;
34900;SDS011;21112;51.976;5.660;2023-07-09T14:42:59;8.30;;;4.22;;
34900;SDS011;21112;51.976;5.660;2023-07-09T14:45:30;9.93;;;4.45;;
34900;SDS011;21112;51.976;5.660;2023-07-09T14:47:58;10.15;;;2.75;;
34900;SDS011;21112;51.976;5.660;2023-07-09T14:50:25;12.80;;;3.00;;
34900;SDS011;21112;51.976;5.660;2023-07-09T14:52:52;15.57;;;3.60;;
34900;SDS011;21112;51.976;5.660;2023-07-09T14:55:24;13.07;;;2.95;;
34900;SDS011;21112;51.976;5.660;2023-07-09T14:57:57;12.00;;;3.25;;
34900;SDS011;21112;51.976;5.660;2023-07-09T15:00:29;8.48;;;3.00;;
34900;SDS011;21112;51.976;5.660;2023-07-09T15:02:56;7.40;;;2.80;;
34900;SDS011;21112;51.976;5.660;2023-07-09T15:05:24;8.52;;;2.58;;
34900;SDS011;21112;51.976;5.660;2023-07-09T15:07:52;6.43;;;2.40;;
34900;SDS011;21112;51.976;5.660;2023-07-09T15:10:24;9.95;;;2.65;;